Hauptseite
METAR-TAF:

METAR-TAF

Flughäfen :

Flugplatz Locarno

Locarno, Schweiz

Breite: 46-09-55N, Länge: 8-52-40E, Höhe: 198 m

Beobachtung

Neuester Wetterbericht von vor 49 Minuten, um 17:50 UTC
Wind 2 kt aus Ost
Temperatur 12°C
Luftfeuchtigkeit 100%
Luftdruck 1027 hPa
Sichtweite 10 km oder mehr
Durchbrochene Bewölkung in der Höhe von 7800 ft

METAR: LSZL 121750Z AUTO 10002KT 9999NDV BKN078 12/12 Q1027 RMK

Zeit: 19:39 (18:39 UTC)

Prognose

Neuester Wetterbericht von vor 1 Stunde und 14 Minuten, um 17:25 UTC
Gültige Prognose vom 12 um 18 UTC bis 13 um 03 UTC
Wind 3 kt aus unterschiedlichen Richtungen
Sichtweite 10 km oder mehr
Durchbrochene Bewölkung in der Höhe von 8000 ft

TAF: LSZL 121725Z 1218/1303 VRB03KT 9999 BKN080

Wetterbeobachtungen und Prognosen von mehr als 4000 Flughäfen (METAR und TAF Bericht).

Die verfügbaren Stationen werden durch gelbe und rote Markierungen auf der Karte dargestellt.

Führen Sie die Maus auf sie, um den Namen der Station zu sehen.

Darauf klicken, um die Beobachtung von Wetterbeobachtungen und Prognosen zu sehen.

Um die Karte zu ändern : klicken Sie auf den grünen Tasten mit einem schwarzen Kreuz Zum Vergrößern, auf den grünen Button mit einem Gedankenstrich zu verkleinern, oder auf die grünen Pfeile für benachbarte Karten.


METAR-TAF: